Terminal Aerodrome Forecast
Issued by NWS Cleveland, OH

Home | Current Version | Previous Version | Text Only | Print | Product List | Glossary Off
Versions: 1 2 3 4 5 6 7 8 9 10 11 12 13 14 15 16 17 18

000
FTUS41 KCLE 211731
TAFCAK
TAF
KCAK 211731Z 2118/2218 20022G32KT P6SM BKN250
     FM220200 26009KT P6SM VCSH OVC045
      TEMPO 2202/2204 4SM -SHRA OVC025
     FM220500 30010KT 4SM -SHSNRA OVC025
     FM220800 30010KT P6SM -SHSN OVC025
     FM221000 31008KT P6SM BKN035
     FM221200 31008KT P6SM SCT050=

USA.gov is the U.S. government's official web portal to all federal, state and local government web resources and services.